Nearby METAR Reports

 

LKTB - Brno/Turany, Czech Republic
Distance from station: SSE 9mi, 14km
Updated: Fri, 16-Nov-2018 6:30pm CET
Clear
Clear
 Wind from NE
Wind: NE 8 mph , 13 km/h
Temperature: 41°F , 5°C
Wind Chill: 36°F , 2°C
Dew Point: 34°F , 1°C
Humidity: 76%
Barometer: 30.5 inHg , 1033 hPa
Summary: Clear
Visibility: greater than 7 miles , 10 km
2018/11/16 17:30 LKTB 161730Z 05007KT CAVOK 05/01 Q1033 NOSIG
LKNA - Namest, Czech Republic
Distance from station: WSW 24mi, 38km
Updated: Fri, 16-Nov-2018 6:00pm CET
Clear
Clear
 Wind from ENE
Wind: ENE 7 mph , 11 km/h
Temperature: 37°F , 3°C
Wind Chill: 32°F , 0°C
Dew Point: 32°F , 0°C
Humidity: 81%
Barometer: 30.45 inHg , 1031 hPa
Summary: Clear
Visibility: greater than 7 miles , 10 km
2018/11/16 17:00 LKNA 161700Z 06006KT CAVOK 03/00 Q1031 NOSIG RMK BLU BLU
 
LKKU - Kunovice, Czech Republic
Distance from station: ESE 40mi, 64km
Updated: Fri, 16-Nov-2018 6:00pm CET
Clear
Clear
 Wind from NNE
Wind: NNE 5 mph , 7 km/h
Temperature: 39°F , 4°C
Wind Chill: 35°F , 2°C
Dew Point: 36°F , 2°C
Humidity: 87%
Barometer: 30.47 inHg , 1032 hPa
Summary: Clear
Visibility: greater than 7 miles , 10 km
2018/11/16 17:00 LKKU 161700Z 02004KT CAVOK 04/02 Q1032
LKPD - Pardubice, Czech Republic
Distance from station: NW 66mi, 106km
Updated: Fri, 16-Nov-2018 6:00pm CET
Mostly Cloudy
Mostly Cloudy
 Wind from ENE
Wind: ENE 7 mph , 11 km/h
Temperature: 43°F , 6°C
Wind Chill: 39°F , 4°C
Dew Point: 32°F , 0°C
Humidity: 66%
Barometer: 30.5 inHg , 1033 hPa
Clouds: Mostly Cloudy
Visibility: 6 miles , 10 km
Cloud details: Mostly Cloudy 4500 ft
2018/11/16 17:00 LKPD 161700Z 07006KT 9999 BKN045 06/M00 Q1033 RMK BLACK
 
LOXT - Langenlebarn/Tul, Austria
Distance from station: SSW 69mi, 111km
Updated: Fri, 16-Nov-2018 5:50pm CET
Clear
Clear
 Wind from varies
Wind: varies 1 mph , 2 km/h
Temperature: 37°F , 3°C
Dew Point: 32°F , 0°C
Humidity: 81%
Barometer: 30.47 inHg , 1032 hPa
Clouds: Clear
2018/11/16 16:50 LOXT 161650Z VRB01KT 20KM SKC 03/00 Q1032 RMK SKC
LZPP - Piestany, Slovakia
Distance from station: SE 70mi, 113km
Updated: Fri, 16-Nov-2018 6:30pm CET
Clear
Clear
 Wind from NE
Wind: NE 3 mph , 6 km/h
Temperature: 36°F , 2°C
Dew Point: 32°F , 0°C
Humidity: 87%
Barometer: 30.47 inHg , 1032 hPa
Summary: Clear
Visibility: greater than 7 miles , 10 km
2018/11/16 17:30 LZPP 161730Z 05003KT CAVOK 02/M00 Q1032
 
LKCV - Caslav, Czech Republic
Distance from station: NW 73mi, 117km
Updated: Fri, 16-Nov-2018 6:00pm CET
Mostly Cloudy
Mostly Cloudy
 Wind from E
Wind: E 7 mph , 11 km/h
Temperature: 41°F , 5°C
Wind Chill: 36°F , 2°C
Dew Point: 32°F , 0°C
Humidity: 70%
Barometer: 30.5 inHg , 1033 hPa
Clouds: Mostly Cloudy
Visibility: 6 miles , 10 km
Cloud details: Mostly Cloudy 4500 ft
2018/11/16 17:00 LKCV 161700Z 09006KT 9999 BKN045 05/00 Q1033 NOSIG RMK BLU BLU
LKMT - Ostrava/Mosnov, Czech Republic
Distance from station: ENE 73mi, 117km
Updated: Fri, 16-Nov-2018 6:30pm CET
Clear
Clear
 Wind from NNE
Wind: NNE 7 mph , 11 km/h
Temperature: 36°F , 2°C
Wind Chill: 30°F , -1°C
Dew Point: 32°F , 0°C
Humidity: 87%
Barometer: 30.53 inHg , 1034 hPa
Summary: Clear
Visibility: greater than 7 miles , 10 km
2018/11/16 17:30 LKMT 161730Z 02006KT CAVOK 02/M00 Q1034 NOSIG
 
LOWW - Vienna/Schwechat, Austria
Distance from station: S 79mi, 127km
Updated: Fri, 16-Nov-2018 6:50pm CET
Clear
Clear
 Wind from N
Wind: N 3 mph , 6 km/h
Temperature: 37°F , 3°C
Dew Point: 34°F , 1°C
Humidity: 87%
Barometer: 30.47 inHg , 1032 hPa
Summary: Clear
Visibility: greater than 7 miles , 10 km
2018/11/16 17:50 LOWW 161750Z 01003KT CAVOK 03/01 Q1032 NOSIG
LZIB - Bratislava Ivank, Slovakia
Distance from station: SSE 80mi, 128km
Updated: Fri, 16-Nov-2018 6:30pm CET
Clear
Clear
 Wind from N
Wind: N 2 mph , 4 km/h
Temperature: 41°F , 5°C
Dew Point: 32°F , 0°C
Humidity: 70%
Barometer: 30.47 inHg , 1032 hPa
Summary: Clear
Visibility: greater than 7 miles , 10 km
2018/11/16 17:30 LZIB 161730Z 36002KT CAVOK 05/00 Q1032 NOSIG
 
LZZI - Zilina, Slovakia
Distance from station: E 90mi, 145km
Updated: Fri, 16-Nov-2018 6:30pm CET
Clear
Clear
 Wind from E
Wind: E 7 mph , 11 km/h
Temperature: 39°F , 4°C
Wind Chill: 34°F , 1°C
Dew Point: 32°F , 0°C
Humidity: 75%
Barometer: 30.5 inHg , 1033 hPa
Summary: Clear
Visibility: greater than 7 miles , 10 km
2018/11/16 17:30 LZZI 161730Z 08006KT CAVOK 04/M00 Q1033
LOAV - Voeslau-Kottingb, Austria
Distance from station: S 90mi, 146km
Updated: Fri, 16-Nov-2018 4:00pm CET
NOT Current
Few Clouds
Few Clouds
 Wind from varies
Wind: varies 2 mph , 4 km/h
Temperature: 45°F , 7°C
Dew Point: 34°F , 1°C
Humidity: 66%
Clouds: Few Clouds
Cloud details: Few Clouds 5000 ft
2018/11/16 15:00 LOAV 161500Z VRB02KT 20KM FEW050SC 07/01
 
LOAN - Wr.neustadt East, Austria
Distance from station: S 98mi, 158km
Updated: Fri, 16-Nov-2018 4:00pm CET
NOT Current
Few Clouds
Few Clouds
 Wind from varies
Wind: varies 2 mph , 4 km/h
Clouds: Few Clouds
Cloud details: Few Clouds 3500 ft
2018/11/16 15:00 LOAN 161500Z VRB02KT 20KM FEW035CU
LKKB - Kbely, Czech Republic
Distance from station: WNW 111mi, 178km
Updated: Fri, 16-Nov-2018 6:00pm CET
Clear
Clear
 Wind from NE
Wind: NE 6 mph , 9 km/h
Temperature: 37°F , 3°C
Wind Chill: 32°F , 0°C
Dew Point: 32°F , 0°C
Humidity: 81%
Barometer: 30.47 inHg , 1032 hPa
Summary: Clear
Visibility: greater than 7 miles , 10 km
2018/11/16 17:00 LKKB 161700Z 04005KT CAVOK 03/00 Q1032 NOSIG
 
LKVO - Vodochody, Czech Republic
Distance from station: NW 120mi, 192km
Updated: Fri, 16-Nov-2018 4:00pm CET
NOT Current
Partial fog, Partly cloudy
Partial fog, Partly cloudy
 Wind from varies
Wind: varies 2 mph , 4 km/h
Temperature: 37°F , 3°C
Dew Point: 34°F , 1°C
Humidity: 87%
Barometer: 30.47 inHg , 1032 hPa
Summary: Partial Fog
Clouds: Partly Cloudy
Visibility: 6 miles , 9 km
2018/11/16 15:00 LKVO 161500Z VRB02KT 9000 0600W PRFG NSC 03/01 Q1032
LKPR - Prague/Ruzyne, Czech Republic
Distance from station: WNW 121mi, 194km
Updated: Fri, 16-Nov-2018 6:30pm CET
Clear
Clear
 Wind from ENE
Wind: ENE 12 mph , 19 km/h
Temperature: 36°F , 2°C
Wind Chill: 28°F , -2°C
Dew Point: 32°F , 0°C
Humidity: 87%
Barometer: 30.47 inHg , 1032 hPa
Summary: Clear
Visibility: greater than 7 miles , 10 km
2018/11/16 17:30 LKPR 161730Z 07010KT CAVOK 02/00 Q1032 NOSIG
 
LZSL - Sliac, Slovakia
Distance from station: ESE 122mi, 196km
Updated: Fri, 16-Nov-2018 6:30pm CET
Clear
Clear
 Wind from N
Wind: N 3 mph , 6 km/h
Temperature: 37°F , 3°C
Dew Point: 30°F , -1°C
Humidity: 75%
Barometer: 30.47 inHg , 1032 hPa
Summary: Clear
Visibility: greater than 7 miles , 10 km
2018/11/16 17:30 LZSL 161730Z 36003KT 330V030 CAVOK 03/M01 Q1032
LHPR - Gyor, Hungary
Distance from station: SSE 125mi, 201km
Updated: Fri, 16-Nov-2018 6:15pm CET
Clear
Clear
 Wind from NE
Wind: NE 6 mph , 9 km/h
Temperature: 41°F , 5°C
Wind Chill: 37°F , 3°C
Dew Point: 32°F , 0°C
Humidity: 70%
Barometer: 30.45 inHg , 1031 hPa
Summary: Clear
Visibility: greater than 7 miles , 10 km
2018/11/16 17:15 LHPR 161715Z AUTO 04005KT CAVOK 05/M00 Q1031 RMK BLU
 
EPWR - Wroclaw/Strachow, Poland
Distance from station: N 128mi, 206km
Updated: Fri, 16-Nov-2018 6:30pm CET
Mostly Cloudy
Mostly Cloudy
 Wind from E
Wind: E 10 mph , 17 km/h
Temperature: 41°F , 5°C
Wind Chill: 35°F , 2°C
Dew Point: 32°F , 0°C
Humidity: 70%
Barometer: 30.62 inHg , 1037 hPa
Clouds: Mostly Cloudy
Visibility: 6 miles , 10 km
Cloud details: Mostly Cloudy 3400 ft
2018/11/16 17:30 EPWR 161730Z 09009KT 9999 BKN034 05/00 Q1037
LOWL - Linz (civ/Mil), Austria
Distance from station: WSW 132mi, 213km
Updated: Fri, 16-Nov-2018 6:50pm CET
Partly Cloudy
Partly Cloudy
 Wind from E
Wind: E 13 mph , 20 km/h
Temperature: 43°F , 6°C
Wind Chill: 36°F , 2°C
Dew Point: 32°F , 0°C
Humidity: 66%
Barometer: 30.39 inHg , 1029 hPa
Clouds: Partly Cloudy
Visibility: 6 miles , 10 km
2018/11/16 17:50 LOWL 161750Z AUTO 08011KT 9999 NSC 06/00 Q1029 NOSIG

Metar display script from Saratoga-Weather.org